YSSY/SYD METAR and TAF weather

Enter ICAO airport designator
Station Type Date Time Source
YSSY METAR 2018/12/17 16:30 UTC NOAA

YSSY 171630Z 18011KT 9999 FEW007 BKN016 22/20 Q1011 TEMPO 1630/1930 BKN007


Station Type Date Time Source
YSSY Decoded METAR 2018/12/17 16:30 UTC NOAA

Sydney Airport, Australia (YSSY) 33-57S 151-11E 3M
Dec 17, 2018 - 11:30 AM EST / 2018.12.17 1630 UTC
Wind: from the S (180 degrees) at 13 MPH (11 KT):0
Visibility: greater than 7 mile(s):0
Sky conditions: mostly cloudy
Temperature: 71 F (22 C)
Dew Point: 68 F (20 C)
Relative Humidity: 88%
Pressure (altimeter): 29.85 in. Hg (1011 hPa)
ob: YSSY 171630Z 18011KT 9999 FEW007 BKN016 22/20 Q1011 TEMPO 1630/1930 BKN007
cycle: 16

Station Type Date Time Source
YSSY TAF 2018/12/17 12:48 UTC NOAA

TAF YSSY 171105Z 1712/1818 18010KT 9999 FEW005 BKN010 BKN020
FM172300 16015KT 9999 -DZ SCT015 BKN025
FM181000 16010KT 9999 -DZ BKN010 BKN020
TEMPO 1712/1818 3000 DZ BKN007


Example: see airport list